San Clemente Ridge Station Data

Red Flag Warning: No
Fire Weather Zone: 242
SDGE Region: Orange County
Lat/Lon: 33.436/-117.59

Observations

Time Wind Speed/Gust Temp(F) RH Fuel Moist Fuel Temp(F) Dewpt(F) Tmax(F) Tmin(F) Accum Precip 10-min Precip SL Press(mb)
3/29 8:00am 36 5 G 8 63° 29% - - 31° 64.6° 56.2° - - 1017.0
3/29 7:50am 56 5 G 7 63° 27% - - 29° 64.6° 56.2° - - 1017.0
3/29 7:40am 360 3 G 5 61° 34% - - 33° 64.6° 56.2° - - 1017.0
3/29 7:30am 41 5 G 7 61° 37% - - 34° 64.6° 56.2° - - 1017.0
3/29 7:20am 359 4 G 6 60° 41% - - 36° 64.6° 56.2° - - 1017.0
3/29 7:10am 307 3 G 4 60° 40% - - 36° 64.6° 56.2° - - 1017.0
3/29 7:00am 309 4 G 5 61° 38% - - 35° 64.6° 56.2° - - 1017.0
3/29 6:50am 312 6 G 7 61° 38% - - 35° 64.6° 56.2° - - 1017.0
3/29 6:40am 301 4 G 5 62° 33% - - 33° 64.6° 56.2° - - 1017.0
3/29 6:30am 304 4 G 6 60° 40% - - 36° 64.6° 56.2° - - 1017.0
3/29 6:20am 316 5 G 6 61° 37% - - 35° 64.6° 56.2° - - 1017.0
3/29 6:10am 328 4 G 5 61° 38% - - 35° 64.6° 56.2° - - 1016.0
3/29 6:00am 301 3 G 4 60° 40% - - 35° 64.6° 56.2° - - 1016.0
3/29 5:50am 323 3 G 5 61° 31% - - 30° 64.6° 56.2° - - 1016.0
3/29 5:40am 306 3 G 4 60° 37% - - 33° 64.6° 56.2° - - 1016.0
3/29 5:30am 322 4 G 6 59° 41% - - 35° 64.6° 56.2° - - 1016.0
3/29 5:20am 312 4 G 6 60° 29% - - 28° 64.6° 56.2° - - 1016.0
3/29 5:10am 332 4 G 7 60° 29% - - 28° 64.6° 56.2° - - 1016.0
3/29 5:00am 13 6 G 8 62° 26% - - 26° 64.6° 56.2° - - 1016.0
3/29 4:50am 36 7 G 9 61° 27% - - 27° 64.6° 56.2° - - 1016.0
3/29 4:40am 21 7 G 9 62° 24% - - 25° 64.6° 56.2° - - 1016.0
3/29 4:30am 354 6 G 7 61° 31% - - 30° 64.6° 56.2° - - 1016.0
3/29 4:20am 354 5 G 6 60° 38% - - 34° 64.6° 56.2° - - 1016.0
3/29 4:10am 335 4 G 6 57° 64% - - 45° 64.6° 56.2° - - 1016.0
3/29 4:00am 319 4 G 6 57° 53% - - 40° 64.6° 56.2° - - 1017.0
3/29 3:50am 343 3 G 4 58° 40% - - 34° 64.6° 56.7° - - 1016.0
3/29 3:40am 323 3 G 5 57° 39% - - 32° 64.6° 56.7° - - 1017.0
3/29 3:30am 304 3 G 5 58° 34% - - 30° 64.6° 56.7° - - 1017.0
3/29 3:20am 332 2 G 4 60° 32% - - 30° 64.6° 56.7° - - 1017.0
3/29 3:10am 92 5 G 7 61° 30% - - 29° 64.6° 56.7° - - 1017.0
3/29 3:00am 81 6 G 7 61° 27% - - 27° 64.6° 56.7° - - 1016.0
3/29 2:50am 67 5 G 7 62° 25% - - 26° 64.6° 56.7° - - 1016.0
3/29 2:40am 79 6 G 7 63° 24% - - 26° 64.6° 56.7° - - 1016.0
3/29 2:30am 103 4 G 7 62° 26% - - 27° 63.6° 56.7° - - 1016.0
3/29 2:20am 82 5 G 7 62° 26% - - 27° 63.6° 56.7° - - 1016.0
3/29 2:10am 79 6 G 8 61° 29% - - 29° 62.4° 56.7° - - 1016.0
3/29 2:00am 102 7 G 9 61° 31% - - 30° 61.8° 56.7° - - 1016.0
3/29 1:50am 108 8 G 10 61° 32% - - 31° 61.5° 56.7° - - 1017.0
3/29 1:40am 101 8 G 10 60° 34% - - 32° 60.9° 56.7° - - 1017.0
3/29 1:30am 104 8 G 10 60° 36% - - 33° 60.6° 56.7° - - 1017.0
3/29 1:20am 98 7 G 9 60° 36% - - 33° 60.5° 56.7° - - 1017.0
3/29 1:10am 102 9 G 11 60° 38% - - 34° 60.5° 56.7° - - 1017.0
3/29 1:00am 100 8 G 12 59° 42% - - 36° 59.9° 56.7° - - 1017.0
3/29 12:50am 111 9 G 11 58° 44% - - 36° 59.2° 56.7° - - 1017.0
3/29 12:40am 115 8 G 10 58° 47% - - 38° 58.9° 56.7° - - 1017.0
3/29 12:30am 124 7 G 11 57° 51% - - 39° 58.5° 56.7° - - 1017.0
3/29 12:20am 139 6 G 7 57° 57% - - 42° 58° 56.7° - - 1017.0
3/29 12:10am 129 6 G 6 57° 53% - - 40° 58° 56.7° - - 1017.0
3/29 12:00am 130 6 G 7 58° 52% - - 40° 69.9° 50.2° - - 1017.0
3/28 11:50pm 118 7 G 8 57° 52% - - 40° 69.9° 50.2° - - 1017.0
3/28 11:40pm 119 6 G 7 57° 51% - - 39° 69.9° 50.2° - - 1017.0
3/28 11:30pm 120 6 G 8 57° 46% - - 37° 69.9° 50.2° - - 1017.0
3/28 11:20pm 116 6 G 7 57° 44% - - 36° 69.9° 50.2° - - 1017.0
3/28 11:10pm 114 8 G 9 58° 43% - - 35° 69.9° 50.2° - - 1017.0
3/28 11:00pm 111 6 G 8 58° 41% - - 35° 69.9° 50.2° - - 1017.0
3/28 10:50pm 97 5 G 7 59° 42% - - 35° 69.9° 50.2° - - 1017.0
3/28 10:40pm 102 5 G 5 59° 41% - - 36° 69.9° 50.2° - - 1017.0
3/28 10:30pm 108 5 G 6 60° 41% - - 36° 69.9° 50.2° - - 1017.0
3/28 10:20pm 106 5 G 6 60° 38% - - 35° 69.9° 50.2° - - 1017.0
3/28 10:10pm 89 5 G 6 61° 37% - - 34° 69.9° 50.2° - - 1017.0
3/28 10:00pm 57 5 G 6 62° 35% - - 34° 69.9° 50.2° - - 1017.0
3/28 9:50pm 67 4 G 5 62° 34% - - 33° 69.9° 50.2° - - 1017.0
3/28 9:40pm 59 4 G 4 63° 34% - - 34° 69.9° 50.2° - - 1017.0
3/28 9:30pm 67 5 G 6 63° 34% - - 34° 69.9° 50.2° - - 1017.0
3/28 9:20pm 33 4 G 5 64° 32% - - 34° 69.9° 50.2° - - 1016.0
3/28 9:10pm 357 5 G 6 64° 31% - - 32° 69.9° 50.2° - - 1016.0
3/28 9:00pm 6 4 G 6 64° 30% - - 32° 69.9° 50.2° - - 1016.0
3/28 8:50pm 38 4 G 7 63° 31% - - 33° 69.9° 50.2° - - 1016.0
3/28 8:40pm 20 7 G 9 64° 31% - - 33° 69.9° 50.2° - - 1016.0
3/28 8:30pm 345 5 G 8 63° 34% - - 34° 69.9° 50.2° - - 1016.0
3/28 8:20pm 329 6 G 8 63° 34% - - 34° 69.9° 50.2° - - 1016.0
3/28 8:10pm 327 6 G 9 62° 35% - - 35° 69.9° 50.2° - - 1016.0
3/28 8:00pm 306 5 G 8 62° 35% - - 35° 69.9° 50.2° - - 1016.0
3/28 7:50pm 304 6 G 10 63° 34% - - 34° 69.9° 50.2° - - 1016.0
3/28 7:40pm 301 7 G 12 63° 36% - - 35° 69.9° 50.2° - - 1016.0
3/28 7:30pm 302 6 G 8 63° 37% - - 37° 69.9° 50.2° - - 1015.0
3/28 7:20pm 301 6 G 7 64° 35% - - 36° 69.9° 50.2° - - 1015.0
3/28 7:10pm 302 6 G 8 64° 35% - - 36° 69.9° 50.2° - - 1015.0
3/28 7:00pm 295 7 G 9 64° 38% - - 38° 69.9° 50.2° - - 1015.0
3/28 6:50pm 293 7 G 10 65° 37% - - 38° 69.9° 50.2° - - 1015.0
3/28 6:40pm 287 6 G 10 65° 35% - - 37° 69.9° 50.2° - - 1015.0
3/28 6:30pm 288 7 G 10 66° 29% - - 33° 69.9° 50.2° - - 1015.0
3/28 6:20pm 286 7 G 11 66° 31% - - 35° 69.9° 50.2° - - 1015.0
3/28 6:10pm 282 7 G 11 66° 34% - - 37° 69.9° 50.2° - - 1015.0
3/28 6:00pm 282 7 G 12 66° 32% - - 36° 69.9° 50.2° - - 1015.0
3/28 5:50pm 283 8 G 12 67° 30% - - 35° 69.9° 50.2° - - 1015.0
3/28 5:40pm 277 8 G 12 68° 27% - - 33° 69.9° 50.2° - - 1014.0
3/28 5:30pm 282 8 G 12 69° 25% - - 32° 69.9° 50.2° - - 1014.0
3/28 5:20pm 285 8 G 12 69° 26% - - 33° 69.9° 50.2° - - 1014.0
3/28 5:10pm 296 8 G 13 69° 26% - - 32° 69.5° 50.2° - - 1014.0
3/28 5:00pm 296 8 G 13 68° 26% - - 32° 69.3° 50.2° - - 1015.0
3/28 4:50pm 283 8 G 13 68° 29% - - 34° 69° 50.2° - - 1015.0
3/28 4:40pm 289 12 G 16 67° 29% - - 34° 67.7° 50.2° - - 1014.0
3/28 4:30pm 285 11 G 15 67° 33% - - 36° 67.6° 50.2° - - 1014.0
3/28 4:20pm 285 11 G 16 66° 35% - - 37° 67.2° 50.2° - - 1015.0
3/28 4:10pm 289 11 G 17 65° 38% - - 39° 66.3° 50.2° - - 1015.0
3/28 4:00pm 290 13 G 19 63° 41% - - 39° 64.5° 50.2° - - 1015.0
3/28 3:50pm 291 13 G 20 63° 44% - - 41° 64.1° 50.2° - - 1015.0
3/28 3:40pm 288 11 G 16 63° 48% - - 43° 64° 50.2° - - 1015.0
3/28 3:30pm 279 12 G 18 63° 47% - - 43° 64° 50.2° - - 1015.0
3/28 3:20pm 287 12 G 19 63° 47% - - 42° 63.8° 50.2° - - 1015.0
3/28 3:10pm 283 10 G 16 63° 50% - - 44° 63.3° 50.2° - - 1015.0
3/28 3:00pm 283 12 G 17 62° 50% - - 43° 63.2° 50.2° - - 1015.0
3/28 2:50pm 288 13 G 19 62° 53% - - 44° 62.9° 50.2° - - 1016.0
3/28 2:40pm 280 10 G 14 62° 58% - - 47° 62.8° 50.2° - - 1016.0
3/28 2:30pm 282 11 G 17 62° 60% - - 48° 62.7° 50.2° - - 1016.0
3/28 2:20pm 282 10 G 16 61° 61% - - 48° 62.7° 50.2° - - 1016.0
3/28 2:10pm 289 12 G 17 61° 62% - - 48° 62.7° 50.2° - - 1016.0
3/28 2:00pm 284 11 G 15 62° 61% - - 48° 62.7° 50.2° - - 1016.0
3/28 1:50pm 279 10 G 14 61° 61% - - 48° 62.6° 50.2° - - 1016.0
3/28 1:40pm 278 9 G 12 61° 62% - - 48° 62.6° 50.2° - - 1017.0
3/28 1:30pm 290 8 G 13 61° 61% - - 48° 62.6° 50.2° - - 1017.0
3/28 1:20pm 282 7 G 11 61° 65% - - 49° 61.9° 50.2° - - 1017.0
3/28 1:10pm 273 7 G 12 61° 68% - - 50° 61.7° 50.2° - - 1017.0
3/28 1:00pm 291 11 G 15 60° 72% - - 51° 61.2° 50.2° - - 1017.0
3/28 12:50pm 271 8 G 15 60° 73% - - 52° 61.2° 50.2° - - 1017.0
3/28 12:40pm 284 7 G 11 60° 73% - - 51° 60.8° 50.2° - - 1017.0
3/28 12:30pm 278 9 G 14 59° 75% - - 51° 60.5° 50.2° - - 1017.0
3/28 12:20pm 270 7 G 13 59° 75% - - 51° 60.5° 50.2° - - 1018.0
3/28 12:10pm 283 9 G 14 60° 75% - - 52° 60.5° 50.2° - - 1017.0
3/28 12:00pm 268 8 G 12 59° 76% - - 52° 60.2° 50.2° - - 1018.0
3/28 11:50am 276 6 G 11 59° 76% - - 52° 60.2° 50.2° - - 1018.0
3/28 11:40am 270 7 G 13 59° 76% - - 51° 59.7° 50.2° - - 1018.0
3/28 11:30am 278 8 G 13 59° 77% - - 51° 59.5° 50.2° - - 1018.0
3/28 11:20am 274 7 G 11 58° 78% - - 52° 59.5° 50.2° - - 1018.0
3/28 11:10am 267 6 G 9 58° 77% - - 51° 59.4° 50.2° - - 1018.0
3/28 11:00am 266 6 G 10 58° 77% - - 51° 59.4° 50.2° - - 1018.0
3/28 10:50am 265 7 G 10 58° 76% - - 51° 59.4° 50.2° - - 1018.0
3/28 10:40am 269 6 G 11 58° 76% - - 51° 59.4° 50.2° - - 1018.0
3/28 10:30am 276 7 G 10 59° 75% - - 51° 59.4° 50.2° - - 1018.0
3/28 10:20am 285 6 G 10 59° 74% - - 51° 59.4° 50.2° - - 1018.0
3/28 10:10am 271 6 G 10 58° 75% - - 50° 59.2° 50.2° - - 1018.0
3/28 10:00am 291 6 G 8 59° 72% - - 50° 59.2° 50.2° - - 1018.0
3/28 9:50am 290 5 G 7 59° 71% - - 49° 59.1° 50.2° - - 1018.0
3/28 9:40am 307 4 G 7 59° 70% - - 49° 59.1° 50.2° - - 1018.0
3/28 9:30am 297 2 G 6 58° 71% - - 49° 59.1° 50.2° - - 1018.0
3/28 9:20am 288 3 G 5 58° 75% - - 50° 58.6° 50.2° - - 1018.0
3/28 9:10am 276 2 G 5 57° 74% - - 49° 58.6° 50.2° - - 1018.0
3/28 9:00am 294 2 G 5 58° 76% - - 50° 58.6° 50.2° - - 1018.0
3/28 8:50am 223 1 G 4 58° 77% - - 50° 58.6° 50.2° - - 1018.0
3/28 8:40am 242 1 G 3 57° 75% - - 49° 58.2° 50.2° - - 1018.0
3/28 8:30am 321 1 G 3 56° 75% - - 48° 57.4° 50.2° - - 1018.0
3/28 8:20am 275 2 G 3 56° 75% - - 48° 57.4° 50.2° - - 1018.0
3/28 8:10am 170 2 G 3 56° 74% - - 48° 57.4° 50.2° - - 1017.0
3/28 8:00am 160 2 G 4 56° 75% - - 48° 57.2° 50.2° - - 1017.0
3/28 7:50am 176 4 G 6 56° 71% - - 47° 57.2° 50.2° - - 1017.0
3/28 7:40am 173 2 G 3 56° 70% - - 47° 57° 50.2° - - 1017.0
3/28 7:30am 71 2 G 5 55° 73% - - 46° 56.2° 50.2° - - 1017.0
3/28 7:20am 45 3 G 8 54° 76% - - 47° 55.5° 50.2° - - 1017.0
3/28 7:10am 334 3 G 5 55° 72% - - 46° 55.5° 50.2° - - 1017.0
3/28 7:00am 202 3 G 5 54° 74% - - 46° 55.4° 50.2° - - 1017.0
3/28 6:50am 88 2 G 5 54° 75% - - 46° 54.9° 50.2° - - 1017.0
3/28 6:40am 74 4 G 6 52° 83% - - 47° 54.8° 50.2° - - 1017.0
3/28 6:30am 73 6 G 7 53° 81% - - 47° 54.8° 50.2° - - 1017.0
3/28 6:20am 63 7 G 8 52° 84% - - 48° 54.8° 50.2° - - 1017.0
3/28 6:10am 71 6 G 9 53° 82% - - 48° 54.8° 50.2° - - 1016.0
3/28 6:00am 105 5 G 8 54° 81% - - 48° 54.8° 50.2° - - 1017.0